sensor_id;sensor_type;location;lat;lon;timestamp;temperature;humidity
322;DHT22;148;51.480;7.208;2022-07-29T09:24:11;20.20;72.40
322;DHT22;148;51.480;7.208;2022-07-29T09:26:42;20.30;72.30
322;DHT22;148;51.480;7.208;2022-07-29T09:29:13;20.50;72.20
322;DHT22;148;51.480;7.208;2022-07-29T09:31:41;20.70;71.80
322;DHT22;148;51.480;7.208;2022-07-29T09:34:09;20.90;71.30
322;DHT22;148;51.480;7.208;2022-07-29T09:36:46;21.00;72.00
322;DHT22;148;51.480;7.208;2022-07-29T09:39:17;21.10;70.80
322;DHT22;148;51.480;7.208;2022-07-29T09:41:54;21.10;70.40
322;DHT22;148;51.480;7.208;2022-07-29T09:44:24;21.30;69.80
322;DHT22;148;51.480;7.208;2022-07-29T09:49:09;21.20;69.50
322;DHT22;148;51.480;7.208;2022-07-29T09:51:36;21.00;69.90
322;DHT22;148;51.480;7.208;2022-07-29T11:05:01;19.80;72.90
322;DHT22;148;51.480;7.208;2022-07-29T11:07:29;20.10;72.50
322;DHT22;148;51.480;7.208;2022-07-29T11:15:17;20.70;71.00
322;DHT22;148;51.480;7.208;2022-07-29T11:20:46;20.50;70.60
322;DHT22;148;51.480;7.208;2022-07-29T11:23:28;20.70;70.80
322;DHT22;148;51.480;7.208;2022-07-29T11:32:11;20.60;71.60
322;DHT22;148;51.480;7.208;2022-07-29T11:34:37;20.90;71.70
322;DHT22;148;51.480;7.208;2022-07-29T11:44:57;21.50;71.60
322;DHT22;148;51.480;7.208;2022-07-29T11:47:25;21.70;70.70
322;DHT22;148;51.480;7.208;2022-07-29T11:49:51;21.70;71.20
322;DHT22;148;51.480;7.208;2022-07-29T11:52:18;21.80;71.40
322;DHT22;148;51.480;7.208;2022-07-29T11:54:44;21.70;70.50
322;DHT22;148;51.480;7.208;2022-07-29T11:57:12;21.80;69.00
322;DHT22;148;51.480;7.208;2022-07-29T11:59:44;21.70;69.30
322;DHT22;148;51.480;7.208;2022-07-29T12:02:10;21.70;69.10
322;DHT22;148;51.480;7.208;2022-07-29T12:07:14;21.50;70.60
322;DHT22;148;51.480;7.208;2022-07-29T12:09:40;21.70;71.50
322;DHT22;148;51.480;7.208;2022-07-29T12:12:16;21.80;69.90
322;DHT22;148;51.480;7.208;2022-07-29T12:14:41;22.00;68.60
322;DHT22;148;51.480;7.208;2022-07-29T12:17:25;22.10;67.00
322;DHT22;148;51.480;7.208;2022-07-29T12:19:53;22.10;65.30
322;DHT22;148;51.480;7.208;2022-07-29T12:22:29;22.00;65.80
322;DHT22;148;51.480;7.208;2022-07-29T12:25:05;22.30;65.20
322;DHT22;148;51.480;7.208;2022-07-29T12:27:31;22.50;64.20
322;DHT22;148;51.480;7.208;2022-07-29T12:30:03;22.60;64.40
322;DHT22;148;51.480;7.208;2022-07-29T12:32:36;22.60;63.30
322;DHT22;148;51.480;7.208;2022-07-29T12:35:25;22.80;62.80
322;DHT22;148;51.480;7.208;2022-07-29T12:37:50;23.10;61.40
322;DHT22;148;51.480;7.208;2022-07-29T12:40:18;23.20;60.00
322;DHT22;148;51.480;7.208;2022-07-29T12:43:12;23.60;59.00
322;DHT22;148;51.480;7.208;2022-07-29T12:45:44;23.70;57.90
322;DHT22;148;51.480;7.208;2022-07-29T12:48:11;23.90;58.50
322;DHT22;148;51.480;7.208;2022-07-29T12:50:55;23.80;58.70
322;DHT22;148;51.480;7.208;2022-07-29T12:53:21;24.00;58.30
322;DHT22;148;51.480;7.208;2022-07-29T12:55:49;24.50;56.60
322;DHT22;148;51.480;7.208;2022-07-29T12:58:33;25.10;55.50
322;DHT22;148;51.480;7.208;2022-07-29T13:01:12;25.70;52.10
322;DHT22;148;51.480;7.208;2022-07-29T13:06:41;26.00;51.00
322;DHT22;148;51.480;7.208;2022-07-29T13:09:17;26.60;50.10
322;DHT22;148;51.480;7.208;2022-07-29T13:11:45;26.60;49.10
322;DHT22;148;51.480;7.208;2022-07-29T13:14:13;26.40;50.40
322;DHT22;148;51.480;7.208;2022-07-29T13:19:48;26.20;50.40
322;DHT22;148;51.480;7.208;2022-07-29T13:22:21;26.10;50.70
322;DHT22;148;51.480;7.208;2022-07-29T13:24:51;25.90;51.70
322;DHT22;148;51.480;7.208;2022-07-29T13:27:19;25.80;52.00
322;DHT22;148;51.480;7.208;2022-07-29T13:29:45;25.80;52.60
322;DHT22;148;51.480;7.208;2022-07-29T13:32:12;26.00;52.80
322;DHT22;148;51.480;7.208;2022-07-29T13:34:38;26.40;51.10
322;DHT22;148;51.480;7.208;2022-07-29T13:37:04;26.70;50.30
322;DHT22;148;51.480;7.208;2022-07-29T13:39:30;26.70;49.60
322;DHT22;148;51.480;7.208;2022-07-29T13:41:56;26.50;49.50
322;DHT22;148;51.480;7.208;2022-07-29T13:44:21;26.30;49.90
322;DHT22;148;51.480;7.208;2022-07-29T13:46:47;26.20;50.10
322;DHT22;148;51.480;7.208;2022-07-29T13:49:12;26.00;50.50
322;DHT22;148;51.480;7.208;2022-07-29T13:51:38;25.90;51.10
322;DHT22;148;51.480;7.208;2022-07-29T13:54:04;25.80;51.10
322;DHT22;148;51.480;7.208;2022-07-29T13:56:30;25.50;51.50
322;DHT22;148;51.480;7.208;2022-07-29T13:58:56;25.40;52.30
322;DHT22;148;51.480;7.208;2022-07-29T14:01:23;25.20;53.00
322;DHT22;148;51.480;7.208;2022-07-29T14:03:49;25.70;52.20
322;DHT22;148;51.480;7.208;2022-07-29T14:06:14;26.10;50.60
322;DHT22;148;51.480;7.208;2022-07-29T14:08:40;26.50;49.10
322;DHT22;148;51.480;7.208;2022-07-29T14:11:06;27.10;47.80
322;DHT22;148;51.480;7.208;2022-07-29T14:13:32;27.70;47.00
322;DHT22;148;51.480;7.208;2022-07-29T14:15:58;28.40;44.70
322;DHT22;148;51.480;7.208;2022-07-29T14:18:23;28.70;43.80
322;DHT22;148;51.480;7.208;2022-07-29T14:20:49;29.30;43.30
322;DHT22;148;51.480;7.208;2022-07-29T14:23:16;29.50;42.50
322;DHT22;148;51.480;7.208;2022-07-29T14:25:42;29.70;42.90
322;DHT22;148;51.480;7.208;2022-07-29T14:28:07;30.20;42.10
322;DHT22;148;51.480;7.208;2022-07-29T14:30:33;31.00;40.00
322;DHT22;148;51.480;7.208;2022-07-29T14:32:58;30.70;40.00
322;DHT22;148;51.480;7.208;2022-07-29T14:35:24;31.50;38.40
322;DHT22;148;51.480;7.208;2022-07-29T14:37:50;32.00;37.40
322;DHT22;148;51.480;7.208;2022-07-29T14:40:15;32.40;36.70
322;DHT22;148;51.480;7.208;2022-07-29T14:42:41;33.00;35.40
322;DHT22;148;51.480;7.208;2022-07-29T14:45:08;33.90;33.80
322;DHT22;148;51.480;7.208;2022-07-29T14:47:34;34.70;32.90
322;DHT22;148;51.480;7.208;2022-07-29T14:50:00;35.30;32.10
322;DHT22;148;51.480;7.208;2022-07-29T14:52:26;35.00;32.00
322;DHT22;148;51.480;7.208;2022-07-29T14:54:51;34.00;33.60
322;DHT22;148;51.480;7.208;2022-07-29T14:57:17;34.60;33.40
322;DHT22;148;51.480;7.208;2022-07-29T14:59:43;34.40;32.90
322;DHT22;148;51.480;7.208;2022-07-29T15:02:08;33.80;34.30
322;DHT22;148;51.480;7.208;2022-07-29T15:04:34;34.20;34.10
322;DHT22;148;51.480;7.208;2022-07-29T15:07:00;34.50;33.00
322;DHT22;148;51.480;7.208;2022-07-29T15:09:25;32.90;34.90
322;DHT22;148;51.480;7.208;2022-07-29T15:11:51;32.90;35.10
322;DHT22;148;51.480;7.208;2022-07-29T15:14:16;32.80;34.50
322;DHT22;148;51.480;7.208;2022-07-29T15:16:42;32.10;35.80
322;DHT22;148;51.480;7.208;2022-07-29T15:19:09;32.20;35.20
322;DHT22;148;51.480;7.208;2022-07-29T15:21:34;31.40;36.20
322;DHT22;148;51.480;7.208;2022-07-29T15:24:00;31.10;36.90
322;DHT22;148;51.480;7.208;2022-07-29T15:26:26;30.90;37.40
322;DHT22;148;51.480;7.208;2022-07-29T15:28:52;30.10;38.60
322;DHT22;148;51.480;7.208;2022-07-29T15:31:17;30.10;38.80
322;DHT22;148;51.480;7.208;2022-07-29T15:33:44;30.10;39.50
322;DHT22;148;51.480;7.208;2022-07-29T15:36:10;30.40;39.20
322;DHT22;148;51.480;7.208;2022-07-29T15:38:38;30.40;39.60
322;DHT22;148;51.480;7.208;2022-07-29T15:41:06;30.20;42.20
322;DHT22;148;51.480;7.208;2022-07-29T15:43:32;30.00;43.10
322;DHT22;148;51.480;7.208;2022-07-29T15:46:00;29.60;43.60
322;DHT22;148;51.480;7.208;2022-07-29T15:48:45;29.50;44.20
322;DHT22;148;51.480;7.208;2022-07-29T15:51:11;29.50;44.30
322;DHT22;148;51.480;7.208;2022-07-29T15:53:37;29.40;44.10
322;DHT22;148;51.480;7.208;2022-07-29T15:56:03;29.30;44.30
322;DHT22;148;51.480;7.208;2022-07-29T15:58:29;29.20;44.60
322;DHT22;148;51.480;7.208;2022-07-29T16:00:55;29.10;44.90
322;DHT22;148;51.480;7.208;2022-07-29T16:03:21;29.00;45.40
322;DHT22;148;51.480;7.208;2022-07-29T16:05:47;28.60;46.40
322;DHT22;148;51.480;7.208;2022-07-29T16:08:13;28.70;46.20
322;DHT22;148;51.480;7.208;2022-07-29T16:10:39;28.90;45.80
322;DHT22;148;51.480;7.208;2022-07-29T16:13:05;28.80;45.60
322;DHT22;148;51.480;7.208;2022-07-29T16:15:31;28.90;45.30
322;DHT22;148;51.480;7.208;2022-07-29T16:17:57;28.90;45.70
322;DHT22;148;51.480;7.208;2022-07-29T16:20:22;28.80;45.50
322;DHT22;148;51.480;7.208;2022-07-29T16:22:48;28.60;46.00
322;DHT22;148;51.480;7.208;2022-07-29T16:25:14;28.60;46.40
322;DHT22;148;51.480;7.208;2022-07-29T16:27:39;29.00;46.00
322;DHT22;148;51.480;7.208;2022-07-29T16:30:06;29.60;44.40
322;DHT22;148;51.480;7.208;2022-07-29T16:32:35;29.90;43.70
322;DHT22;148;51.480;7.208;2022-07-29T16:35:01;30.10;43.10
322;DHT22;148;51.480;7.208;2022-07-29T16:37:29;29.90;43.10
322;DHT22;148;51.480;7.208;2022-07-29T16:40:00;29.50;43.50
322;DHT22;148;51.480;7.208;2022-07-29T16:42:26;29.10;44.40
322;DHT22;148;51.480;7.208;2022-07-29T16:44:51;28.90;45.00
322;DHT22;148;51.480;7.208;2022-07-29T16:47:17;28.60;45.90
322;DHT22;148;51.480;7.208;2022-07-29T16:49:43;28.50;46.30
322;DHT22;148;51.480;7.208;2022-07-29T16:52:08;28.30;46.40
322;DHT22;148;51.480;7.208;2022-07-29T16:54:34;28.30;47.20
322;DHT22;148;51.480;7.208;2022-07-29T16:57:00;28.20;47.40
322;DHT22;148;51.480;7.208;2022-07-29T16:59:27;28.00;48.00
322;DHT22;148;51.480;7.208;2022-07-29T17:01:53;27.90;48.00
322;DHT22;148;51.480;7.208;2022-07-29T17:04:18;27.90;48.60
322;DHT22;148;51.480;7.208;2022-07-29T17:06:44;27.80;48.00
322;DHT22;148;51.480;7.208;2022-07-29T17:09:11;27.80;48.20
322;DHT22;148;51.480;7.208;2022-07-29T17:11:40;27.60;48.20
322;DHT22;148;51.480;7.208;2022-07-29T17:14:07;27.60;48.40
322;DHT22;148;51.480;7.208;2022-07-29T17:16:32;27.50;48.40
322;DHT22;148;51.480;7.208;2022-07-29T17:18:58;27.30;48.90
322;DHT22;148;51.480;7.208;2022-07-29T17:21:25;27.30;48.20
322;DHT22;148;51.480;7.208;2022-07-29T17:23:51;27.10;48.60
322;DHT22;148;51.480;7.208;2022-07-29T17:26:18;26.90;49.00
322;DHT22;148;51.480;7.208;2022-07-29T17:28:44;26.90;49.60
322;DHT22;148;51.480;7.208;2022-07-29T17:31:12;26.90;47.70
322;DHT22;148;51.480;7.208;2022-07-29T17:33:50;26.70;46.90
322;DHT22;148;51.480;7.208;2022-07-29T17:36:15;26.80;47.30
322;DHT22;148;51.480;7.208;2022-07-29T17:38:56;26.80;47.40
322;DHT22;148;51.480;7.208;2022-07-29T17:41:23;26.80;47.70
322;DHT22;148;51.480;7.208;2022-07-29T17:43:49;26.70;47.70
322;DHT22;148;51.480;7.208;2022-07-29T17:46:16;26.70;47.40
322;DHT22;148;51.480;7.208;2022-07-29T17:48:42;26.70;48.20
322;DHT22;148;51.480;7.208;2022-07-29T17:51:08;26.80;46.90
322;DHT22;148;51.480;7.208;2022-07-29T17:53:34;26.70;47.30
322;DHT22;148;51.480;7.208;2022-07-29T17:56:01;26.70;47.40
322;DHT22;148;51.480;7.208;2022-07-29T17:58:26;26.60;48.00
322;DHT22;148;51.480;7.208;2022-07-29T18:00:52;26.50;48.40
322;DHT22;148;51.480;7.208;2022-07-29T18:03:18;26.40;48.80
322;DHT22;148;51.480;7.208;2022-07-29T18:05:44;26.40;49.20
322;DHT22;148;51.480;7.208;2022-07-29T18:08:09;26.50;49.20
322;DHT22;148;51.480;7.208;2022-07-29T18:10:36;26.50;49.40
322;DHT22;148;51.480;7.208;2022-07-29T18:13:02;26.40;48.90
322;DHT22;148;51.480;7.208;2022-07-29T18:15:29;26.40;49.10
322;DHT22;148;51.480;7.208;2022-07-29T18:17:54;26.20;49.70
322;DHT22;148;51.480;7.208;2022-07-29T18:20:20;26.20;50.60
322;DHT22;148;51.480;7.208;2022-07-29T18:22:46;26.00;50.70
322;DHT22;148;51.480;7.208;2022-07-29T18:25:12;26.00;50.60
322;DHT22;148;51.480;7.208;2022-07-29T18:27:37;26.10;50.70
322;DHT22;148;51.480;7.208;2022-07-29T18:30:04;25.90;50.10
322;DHT22;148;51.480;7.208;2022-07-29T18:32:30;25.90;50.40
322;DHT22;148;51.480;7.208;2022-07-29T18:34:56;25.80;51.50
322;DHT22;148;51.480;7.208;2022-07-29T18:37:23;25.80;51.30
322;DHT22;148;51.480;7.208;2022-07-29T18:39:49;25.60;51.90
322;DHT22;148;51.480;7.208;2022-07-29T18:42:15;25.60;52.10
322;DHT22;148;51.480;7.208;2022-07-29T18:44:41;25.60;51.90
322;DHT22;148;51.480;7.208;2022-07-29T18:47:07;25.50;52.30
322;DHT22;148;51.480;7.208;2022-07-29T18:49:32;25.60;52.30
322;DHT22;148;51.480;7.208;2022-07-29T18:51:58;25.60;52.30
322;DHT22;148;51.480;7.208;2022-07-29T18:54:24;25.50;52.20
322;DHT22;148;51.480;7.208;2022-07-29T18:56:50;25.50;52.60
322;DHT22;148;51.480;7.208;2022-07-29T18:59:15;25.60;52.60
322;DHT22;148;51.480;7.208;2022-07-29T19:01:44;25.60;52.50
322;DHT22;148;51.480;7.208;2022-07-29T19:04:10;25.50;52.70
322;DHT22;148;51.480;7.208;2022-07-29T19:06:35;25.50;52.80
322;DHT22;148;51.480;7.208;2022-07-29T19:09:01;25.40;52.90
322;DHT22;148;51.480;7.208;2022-07-29T19:11:27;25.40;53.00
322;DHT22;148;51.480;7.208;2022-07-29T19:13:52;25.30;53.20
322;DHT22;148;51.480;7.208;2022-07-29T19:16:18;25.30;53.20
322;DHT22;148;51.480;7.208;2022-07-29T19:18:44;25.20;53.60
322;DHT22;148;51.480;7.208;2022-07-29T19:21:11;25.10;54.10
322;DHT22;148;51.480;7.208;2022-07-29T19:23:37;25.10;54.10
322;DHT22;148;51.480;7.208;2022-07-29T19:26:03;25.10;54.40
322;DHT22;148;51.480;7.208;2022-07-29T19:28:29;25.20;54.20
322;DHT22;148;51.480;7.208;2022-07-29T19:30:56;25.10;54.30
322;DHT22;148;51.480;7.208;2022-07-29T19:33:21;24.90;54.70
322;DHT22;148;51.480;7.208;2022-07-29T19:35:47;24.90;54.80
322;DHT22;148;51.480;7.208;2022-07-29T19:38:13;24.80;55.10
322;DHT22;148;51.480;7.208;2022-07-29T19:40:39;24.70;55.30
322;DHT22;148;51.480;7.208;2022-07-29T19:43:05;24.70;55.30
322;DHT22;148;51.480;7.208;2022-07-29T19:45:32;24.70;55.60
322;DHT22;148;51.480;7.208;2022-07-29T19:47:58;24.70;55.50
322;DHT22;148;51.480;7.208;2022-07-29T19:50:24;24.50;55.90
322;DHT22;148;51.480;7.208;2022-07-29T19:52:51;24.60;55.60
322;DHT22;148;51.480;7.208;2022-07-29T19:55:18;24.60;55.50
322;DHT22;148;51.480;7.208;2022-07-29T19:57:44;24.50;55.90
322;DHT22;148;51.480;7.208;2022-07-29T20:00:14;24.50;56.20
322;DHT22;148;51.480;7.208;2022-07-29T20:02:40;24.50;56.30
322;DHT22;148;51.480;7.208;2022-07-29T20:05:08;24.40;56.60
322;DHT22;148;51.480;7.208;2022-07-29T20:07:34;24.40;56.90
322;DHT22;148;51.480;7.208;2022-07-29T20:10:01;24.30;57.30
322;DHT22;148;51.480;7.208;2022-07-29T20:12:27;24.20;57.50
322;DHT22;148;51.480;7.208;2022-07-29T20:14:53;24.20;57.90
322;DHT22;148;51.480;7.208;2022-07-29T20:17:26;24.10;58.10
322;DHT22;148;51.480;7.208;2022-07-29T20:19:53;24.10;58.50
322;DHT22;148;51.480;7.208;2022-07-29T20:22:21;24.00;58.70
322;DHT22;148;51.480;7.208;2022-07-29T20:24:47;24.00;59.10
322;DHT22;148;51.480;7.208;2022-07-29T20:27:12;24.10;59.10
322;DHT22;148;51.480;7.208;2022-07-29T20:29:38;24.10;59.30
322;DHT22;148;51.480;7.208;2022-07-29T20:32:05;24.00;59.40
322;DHT22;148;51.480;7.208;2022-07-29T20:34:32;23.90;60.00
322;DHT22;148;51.480;7.208;2022-07-29T20:36:58;23.90;60.30
322;DHT22;148;51.480;7.208;2022-07-29T20:39:24;23.90;60.30
322;DHT22;148;51.480;7.208;2022-07-29T20:41:50;23.70;60.70
322;DHT22;148;51.480;7.208;2022-07-29T20:44:16;23.60;61.40
322;DHT22;148;51.480;7.208;2022-07-29T20:46:44;23.60;61.60
322;DHT22;148;51.480;7.208;2022-07-29T20:49:10;23.60;61.50
322;DHT22;148;51.480;7.208;2022-07-29T20:51:36;23.60;61.90
322;DHT22;148;51.480;7.208;2022-07-29T20:54:04;23.50;62.30
322;DHT22;148;51.480;7.208;2022-07-29T20:56:30;23.50;62.30
322;DHT22;148;51.480;7.208;2022-07-29T20:58:55;23.40;62.60
322;DHT22;148;51.480;7.208;2022-07-29T21:01:21;23.40;62.40
322;DHT22;148;51.480;7.208;2022-07-29T21:03:46;23.40;62.40
322;DHT22;148;51.480;7.208;2022-07-29T21:06:12;23.40;62.60
322;DHT22;148;51.480;7.208;2022-07-29T21:08:40;23.40;62.70
322;DHT22;148;51.480;7.208;2022-07-29T21:11:06;23.40;62.90
322;DHT22;148;51.480;7.208;2022-07-29T21:13:31;23.30;63.30
322;DHT22;148;51.480;7.208;2022-07-29T21:16:06;23.30;63.40
322;DHT22;148;51.480;7.208;2022-07-29T21:18:39;23.10;64.30
322;DHT22;148;51.480;7.208;2022-07-29T21:21:06;23.10;64.70
322;DHT22;148;51.480;7.208;2022-07-29T21:23:32;23.00;65.20
322;DHT22;148;51.480;7.208;2022-07-29T21:25:58;22.90;65.60
322;DHT22;148;51.480;7.208;2022-07-29T21:28:24;22.70;65.90
322;DHT22;148;51.480;7.208;2022-07-29T21:30:56;22.70;66.40
322;DHT22;148;51.480;7.208;2022-07-29T21:33:23;22.70;66.40
322;DHT22;148;51.480;7.208;2022-07-29T21:35:49;22.60;66.60
322;DHT22;148;51.480;7.208;2022-07-29T21:38:15;22.60;66.50
322;DHT22;148;51.480;7.208;2022-07-29T21:40:43;22.50;66.40
322;DHT22;148;51.480;7.208;2022-07-29T21:43:09;22.40;66.60
322;DHT22;148;51.480;7.208;2022-07-29T21:45:35;22.40;66.80
322;DHT22;148;51.480;7.208;2022-07-29T21:48:00;22.40;66.50
322;DHT22;148;51.480;7.208;2022-07-29T21:50:26;22.40;67.00
322;DHT22;148;51.480;7.208;2022-07-29T21:52:51;22.50;66.60
322;DHT22;148;51.480;7.208;2022-07-29T21:55:17;22.60;66.50
322;DHT22;148;51.480;7.208;2022-07-29T21:57:43;22.60;65.90
322;DHT22;148;51.480;7.208;2022-07-29T22:00:10;22.50;66.20
322;DHT22;148;51.480;7.208;2022-07-29T22:02:42;22.60;65.70
322;DHT22;148;51.480;7.208;2022-07-29T22:05:09;22.50;65.90
322;DHT22;148;51.480;7.208;2022-07-29T22:07:36;22.50;66.00
322;DHT22;148;51.480;7.208;2022-07-29T22:10:06;22.40;66.50
322;DHT22;148;51.480;7.208;2022-07-29T22:12:31;22.50;66.60
322;DHT22;148;51.480;7.208;2022-07-29T22:14:58;22.40;66.40
322;DHT22;148;51.480;7.208;2022-07-29T22:17:23;22.50;66.50
322;DHT22;148;51.480;7.208;2022-07-29T22:19:50;22.50;66.10
322;DHT22;148;51.480;7.208;2022-07-29T22:22:17;22.60;66.10
322;DHT22;148;51.480;7.208;2022-07-29T22:24:42;22.60;66.30
322;DHT22;148;51.480;7.208;2022-07-29T22:27:08;22.50;66.40
322;DHT22;148;51.480;7.208;2022-07-29T22:29:34;22.50;66.30
322;DHT22;148;51.480;7.208;2022-07-29T22:32:00;22.60;65.80
322;DHT22;148;51.480;7.208;2022-07-29T22:34:26;22.50;65.80
322;DHT22;148;51.480;7.208;2022-07-29T22:36:51;22.60;65.70
322;DHT22;148;51.480;7.208;2022-07-29T22:39:17;22.60;65.60
322;DHT22;148;51.480;7.208;2022-07-29T22:41:43;22.60;65.60
322;DHT22;148;51.480;7.208;2022-07-29T22:44:10;22.60;66.00
322;DHT22;148;51.480;7.208;2022-07-29T22:46:36;22.60;66.20
322;DHT22;148;51.480;7.208;2022-07-29T22:49:02;22.50;66.30
322;DHT22;148;51.480;7.208;2022-07-29T22:51:29;22.50;66.30
322;DHT22;148;51.480;7.208;2022-07-29T22:53:55;22.40;66.90
322;DHT22;148;51.480;7.208;2022-07-29T22:56:21;22.30;67.10
322;DHT22;148;51.480;7.208;2022-07-29T22:58:47;22.30;66.90
322;DHT22;148;51.480;7.208;2022-07-29T23:01:14;22.30;67.30
322;DHT22;148;51.480;7.208;2022-07-29T23:03:39;22.30;67.30
322;DHT22;148;51.480;7.208;2022-07-29T23:06:05;22.30;67.30
322;DHT22;148;51.480;7.208;2022-07-29T23:08:32;22.30;67.30
322;DHT22;148;51.480;7.208;2022-07-29T23:10:58;22.20;67.80
322;DHT22;148;51.480;7.208;2022-07-29T23:13:23;22.20;67.60
322;DHT22;148;51.480;7.208;2022-07-29T23:15:49;22.10;67.80
322;DHT22;148;51.480;7.208;2022-07-29T23:18:15;22.00;68.70
322;DHT22;148;51.480;7.208;2022-07-29T23:20:42;22.10;68.60
322;DHT22;148;51.480;7.208;2022-07-29T23:23:09;22.10;68.40
322;DHT22;148;51.480;7.208;2022-07-29T23:25:36;22.10;68.40
322;DHT22;148;51.480;7.208;2022-07-29T23:28:02;22.20;68.30
322;DHT22;148;51.480;7.208;2022-07-29T23:30:28;22.20;68.00
322;DHT22;148;51.480;7.208;2022-07-29T23:32:55;22.20;68.10
322;DHT22;148;51.480;7.208;2022-07-29T23:35:21;22.10;68.20
322;DHT22;148;51.480;7.208;2022-07-29T23:37:49;22.10;68.40
322;DHT22;148;51.480;7.208;2022-07-29T23:40:15;22.10;68.50
322;DHT22;148;51.480;7.208;2022-07-29T23:42:41;22.10;68.60
322;DHT22;148;51.480;7.208;2022-07-29T23:45:08;22.10;68.70
322;DHT22;148;51.480;7.208;2022-07-29T23:47:34;22.10;68.40
322;DHT22;148;51.480;7.208;2022-07-29T23:49:59;22.10;68.50
322;DHT22;148;51.480;7.208;2022-07-29T23:52:25;22.10;68.60
322;DHT22;148;51.480;7.208;2022-07-29T23:54:52;22.10;68.50
322;DHT22;148;51.480;7.208;2022-07-29T23:57:18;22.00;68.80
322;DHT22;148;51.480;7.208;2022-07-29T23:59:47;22.00;68.90
